Time;durP1;ratioP1;P1;durP2;ratioP2;P2;SDS_P1;SDS_P2;PMS_P1;PMS_P2;Temp;Humidity;BMP_temperature;BMP_pressure;BME280_temperature;BME280_humidity;BME280_pressure;Samples;Min_cycle;Max_cycle;Signal;HPM_P1;HPM_P2
2022/02/05 00:01:46;;;;;;;31.20;15.20;;;;;;;3.28;78.27;97714.60;106326;1277;22623;-76
2022/02/05 00:04:15;;;;;;;30.50;14.50;;;;;;;3.28;78.40;97712.94;106416;1277;137506;-76
2022/02/05 00:06:46;;;;;;;30.70;15.70;;;;;;;3.27;78.11;97708.23;106625;1277;22713;-76
2022/02/05 00:09:32;;;;;;;29.40;14.70;;;;;;;3.27;78.22;97701.48;105999;1278;138074;-77
2022/02/05 00:20:26;;;;;;;26.40;12.40;;;;;;;3.30;78.13;97694.75;106057;1278;24435;-77
2022/02/05 00:39:45;;;;;;;25.90;11.40;;;;;;;3.19;78.66;97699.33;106067;1277;138519;-77
2022/02/05 00:42:26;;;;;;;21.90;11.80;;;;;;;3.21;78.44;97704.03;106068;1278;25238;-77
2022/02/05 00:44:54;;;;;;;24.60;11.10;;;;;;;3.20;78.60;97700.77;106116;1277;137695;-77
2022/02/05 00:47:21;;;;;;;24.10;12.20;;;;;;;3.20;78.45;97701.36;106341;1277;23102;-77
2022/02/05 00:49:54;;;;;;;27.70;11.80;;;;;;;3.19;78.46;97704.88;106661;1277;23968;-77
2022/02/05 00:52:21;;;;;;;22.20;10.60;;;;;;;3.20;78.50;97702.42;106300;1277;138467;-77
2022/02/05 00:54:51;;;;;;;22.10;12.10;;;;;;;3.22;78.58;97702.25;106543;1277;22606;-77
2022/02/05 00:57:31;;;;;;;22.30;11.20;;;;;;;3.25;78.50;97698.71;106014;1277;138344;-77
2022/02/05 00:59:58;;;;;;;20.90;10.10;;;;;;;3.27;78.67;97700.20;106426;1277;25252;-77
2022/02/05 01:02:27;;;;;;;21.80;10.50;;;;;;;3.30;78.68;97700.55;106038;1277;25315;-77
2022/02/05 01:04:54;;;;;;;20.20;10.70;;;;;;;3.31;78.68;97703.73;106351;1277;137654;-77
2022/02/05 01:07:39;;;;;;;20.70;11.40;;;;;;;3.32;78.54;97699.61;106029;1277;26600;-77
2022/02/05 01:10:07;;;;;;;25.50;11.90;;;;;;;3.32;78.43;97698.38;106586;1277;137456;-77
2022/02/05 01:12:37;;;;;;;21.70;11.70;;;;;;;3.33;78.25;97700.33;106443;1277;25052;-77
2022/02/05 01:15:05;;;;;;;20.00;10.80;;;;;;;3.35;78.46;97703.24;106600;1277;137929;-77
2022/02/05 01:17:39;;;;;;;19.80;10.60;;;;;;;3.37;78.43;97701.77;106730;1277;22642;-77
2022/02/05 01:22:40;;;;;;;22.10;10.70;;;;;;;3.41;78.42;97697.40;106540;1277;137502;-77
2022/02/05 01:25:07;;;;;;;21.60;10.80;;;;;;;3.43;78.32;97689.90;106332;1277;25336;-77
2022/02/05 01:27:49;;;;;;;20.20;10.20;;;;;;;3.42;78.40;97689.24;106133;1277;138043;-77
2022/02/05 01:30:23;;;;;;;22.00;11.20;;;;;;;3.41;78.48;97694.02;106325;1277;22565;-77
2022/02/05 01:49:45;;;;;;;19.70;11.20;;;;;;;3.45;78.60;97692.13;106632;1277;22561;-77
2022/02/05 01:57:43;;;;;;;22.20;10.70;;;;;;;3.50;78.55;97689.92;106016;1277;138136;-77
2022/02/05 02:05:32;;;;;;;16.00;8.70;;;;;;;3.55;78.49;97687.98;106815;1277;137554;-77
2022/02/05 02:18:57;;;;;;;15.20;8.10;;;;;;;3.56;78.51;97667.14;106015;1278;22595;-78
2022/02/05 02:24:18;;;;;;;12.00;8.20;;;;;;;3.54;78.62;97672.51;106297;1277;22653;-77
2022/02/05 02:27:06;;;;;;;11.60;6.90;;;;;;;3.53;78.56;97682.38;105940;1277;23340;-77
2022/02/05 02:32:00;;;;;;;12.90;8.30;;;;;;;3.53;78.87;97690.98;106363;1277;25240;-77
2022/02/05 02:34:46;;;;;;;14.50;7.50;;;;;;;3.55;78.72;97687.13;106064;1278;137892;-79
2022/02/05 02:37:21;;;;;;;10.80;7.00;;;;;;;3.58;79.07;97692.23;106383;1277;23382;-78
2022/02/05 02:42:15;;;;;;;12.30;7.50;;;;;;;3.62;78.84;97691.29;106295;1278;23900;-78
2022/02/05 02:44:42;;;;;;;11.60;7.50;;;;;;;3.64;78.90;97693.98;106506;1278;22560;-79
2022/02/05 02:47:09;;;;;;;13.00;7.70;;;;;;;3.64;78.92;97698.77;106468;1277;137594;-78
2022/02/05 02:49:53;;;;;;;11.90;7.50;;;;;;;3.65;78.84;97701.28;106532;1278;24412;-78
2022/02/05 02:57:59;;;;;;;9.70;7.00;;;;;;;3.73;78.88;97691.66;105757;1277;137692;-79
2022/02/05 03:00:26;;;;;;;12.90;8.00;;;;;;;3.75;78.90;97691.64;106311;1278;25425;-77
2022/02/05 03:02:54;;;;;;;10.70;7.60;;;;;;;3.75;78.79;97688.00;106114;1277;25392;-77
2022/02/05 03:05:22;;;;;;;14.80;7.50;;;;;;;3.75;78.79;97686.92;106138;1277;139062;-77
2022/02/05 03:07:50;;;;;;;11.40;7.40;;;;;;;3.75;78.95;97681.75;106139;1277;24241;-77
2022/02/05 03:10:17;;;;;;;12.90;7.60;;;;;;;3.76;78.82;97689.48;105912;1277;137790;-77
2022/02/05 03:12:44;;;;;;;10.90;6.80;;;;;;;3.76;78.84;97692.83;106191;1276;24403;-77
2022/02/05 03:15:19;;;;;;;10.40;6.70;;;;;;;3.77;78.83;97692.90;106043;1278;25374;-76
2022/02/05 03:18:04;;;;;;;11.80;7.40;;;;;;;3.77;78.85;97691.33;105855;1277;137554;-76
2022/02/05 03:20:32;;;;;;;9.40;6.10;;;;;;;3.75;78.98;97689.57;106095;1277;22652;-77
2022/02/05 03:23:00;;;;;;;10.00;6.90;;;;;;;3.74;78.77;97690.66;106249;1279;137542;-76
2022/02/05 03:25:29;;;;;;;10.30;7.20;;;;;;;3.75;78.76;97691.02;106129;1277;25287;-76
2022/02/05 03:27:57;;;;;;;11.10;6.60;;;;;;;3.77;78.62;97694.73;106331;1277;137953;-76
2022/02/05 03:30:25;;;;;;;11.40;6.70;;;;;;;3.80;78.54;97695.90;106237;1277;24266;-76
2022/02/05 03:32:52;;;;;;;10.90;6.30;;;;;;;3.82;78.56;97700.23;106165;1278;25277;-76
2022/02/05 03:35:19;;;;;;;12.40;6.90;;;;;;;3.85;78.26;97703.48;106110;1277;137295;-76
2022/02/05 03:37:46;;;;;;;12.10;6.70;;;;;;;3.86;78.26;97701.54;106291;1277;25380;-77
2022/02/05 03:40:13;;;;;;;11.10;6.30;;;;;;;3.87;78.28;97698.98;105964;1278;137374;-77
2022/02/05 03:42:39;;;;;;;11.70;6.80;;;;;;;3.89;78.24;97697.36;106167;1277;22554;-76
2022/02/05 03:45:09;;;;;;;11.20;6.20;;;;;;;3.91;78.15;97695.52;105858;1277;22544;-78
2022/02/05 03:47:36;;;;;;;;;;;;;;;3.94;78.07;97700.13;106179;1277;138840;-77
2022/02/05 03:50:04;;;;;;;9.20;5.90;;;;;;;3.97;78.04;97703.39;106286;1278;24408;-77
2022/02/05 03:52:32;;;;;;;7.80;6.30;;;;;;;3.98;78.01;97697.66;106122;1277;137290;-77
2022/02/05 03:54:59;;;;;;;11.70;6.80;;;;;;;3.99;77.97;97697.48;106111;1277;22570;-77
2022/02/05 03:57:26;;;;;;;12.60;7.30;;;;;;;3.99;77.97;97701.00;106119;1277;137457;-77
2022/02/05 03:59:53;;;;;;;10.40;6.50;;;;;;;4.00;78.13;97702.36;106208;1277;23113;-77
2022/02/05 04:02:20;;;;;;;12.10;6.50;;;;;;;4.02;78.13;97704.09;106189;1277;24323;-77
2022/02/05 04:04:47;;;;;;;11.60;7.40;;;;;;;4.04;78.24;97708.09;106121;1277;137547;-77
2022/02/05 04:07:14;;;;;;;12.30;7.60;;;;;;;4.06;78.31;97708.90;106197;1277;23387;-77
2022/02/05 04:09:46;;;;;;;16.80;7.10;;;;;;;4.06;78.34;97709.06;105941;1277;137442;-77
2022/02/05 04:17:28;;;;;;;12.80;7.30;;;;;;;4.08;78.38;97715.22;105994;1277;138263;-77
2022/02/05 04:19:55;;;;;;;12.30;7.40;;;;;;;4.09;78.76;97717.03;106114;1277;24532;-77
2022/02/05 04:22:22;;;;;;;11.30;7.30;;;;;;;4.10;78.72;97719.05;106127;1277;137314;-76
2022/02/05 04:24:49;;;;;;;12.10;6.90;;;;;;;4.10;79.18;97718.40;106223;1277;24285;-76
2022/02/05 04:27:16;;;;;;;13.50;7.50;;;;;;;4.09;79.68;97718.90;106062;1277;25267;-77
2022/02/05 04:29:43;;;;;;;13.40;8.50;;;;;;;4.07;79.82;97716.81;106051;1277;138016;-77
2022/02/05 04:32:13;;;;;;;12.30;7.20;;;;;;;4.07;79.96;97718.26;106075;1277;22551;-77
2022/02/05 04:34:41;;;;;;;10.80;7.20;;;;;;;4.06;80.36;97715.49;105907;1277;137898;-77
2022/02/05 04:37:08;;;;;;;15.40;7.70;;;;;;;4.06;80.38;97717.02;106049;1278;23090;-77
2022/02/05 04:39:39;;;;;;;10.90;7.20;;;;;;;4.06;80.77;97717.73;105918;1277;138085;-78
2022/02/05 04:42:14;;;;;;;14.10;8.20;;;;;;;4.03;80.84;97718.83;106278;1277;24254;-77
2022/02/05 04:50:10;;;;;;;10.70;7.00;;;;;;;4.03;80.96;97724.27;106179;1277;24302;-76
2022/02/05 05:00:13;;;;;;;10.10;7.70;;;;;;;4.02;81.11;97751.13;106003;1277;25194;-77
2022/02/05 05:10:27;;;;;;;13.80;7.40;;;;;;;4.05;81.66;97769.17;106023;1277;137495;-77
2022/02/05 05:13:07;;;;;;;9.10;5.80;;;;;;;4.05;81.90;97776.80;106531;1277;22563;-77
2022/02/05 05:21:05;;;;;;;7.60;5.10;;;;;;;4.10;82.56;97814.28;106078;1278;24357;-76
2022/02/05 05:23:32;;;;;;;6.40;4.90;;;;;;;4.09;83.10;97825.14;106040;1277;137382;-76
2022/02/05 05:26:13;;;;;;;7.70;5.40;;;;;;;4.05;83.57;97830.15;106235;1278;23466;-76
2022/02/05 05:28:40;;;;;;;8.20;5.00;;;;;;;3.97;83.56;97839.81;106201;1277;138171;-76
2022/02/05 05:31:07;;;;;;;5.90;4.60;;;;;;;3.90;83.44;97840.86;106060;1277;24173;-76
2022/02/05 05:33:34;;;;;;;5.30;3.50;;;;;;;3.84;83.61;97850.18;106018;1277;137836;-76
2022/02/05 05:36:01;;;;;;;5.60;1.60;;;;;;;3.74;82.09;97862.66;106280;1277;22568;-75
2022/02/05 05:38:28;;;;;;;2.80;1.50;;;;;;;3.61;81.37;97874.50;105863;1277;25330;-78
2022/02/05 05:40:55;;;;;;;2.00;1.50;;;;;;;3.49;81.47;97880.30;106448;1277;138089;-76
2022/02/05 05:43:39;;;;;;;2.00;1.80;;;;;;;3.36;81.71;97884.25;106151;1278;25344;-76
2022/02/05 05:46:30;;;;;;;2.70;1.40;;;;;;;3.23;82.02;97888.89;105942;1277;137715;-76
2022/02/05 05:49:12;;;;;;;2.10;1.60;;;;;;;3.11;82.21;97887.02;106121;1277;23963;-76
2022/02/05 05:51:39;;;;;;;2.10;1.60;;;;;;;3.00;82.46;97888.45;106084;1277;137929;-76
2022/02/05 05:54:06;;;;;;;2.60;1.60;;;;;;;2.93;82.50;97905.64;106089;1277;23057;-77
2022/02/05 05:56:34;;;;;;;1.40;1.30;;;;;;;2.86;82.73;97906.36;106260;1277;26524;-77
2022/02/05 05:59:02;;;;;;;2.00;1.60;;;;;;;2.80;82.83;97919.40;106148;1277;137864;-77
2022/02/05 06:01:29;;;;;;;1.90;1.70;;;;;;;2.75;82.71;97930.90;106031;1277;24260;-77
2022/02/05 06:03:56;;;;;;;2.40;1.90;;;;;;;2.73;82.61;97935.78;105944;1277;137691;-77
2022/02/05 06:06:23;;;;;;;2.60;1.80;;;;;;;2.70;82.55;97943.69;106380;1277;23288;-77
2022/02/05 06:08:50;;;;;;;3.50;1.50;;;;;;;2.67;82.32;97944.02;106294;1277;22665;-77
2022/02/05 06:11:17;;;;;;;2.20;1.80;;;;;;;2.64;82.36;97953.73;106136;1277;138217;-76
2022/02/05 06:13:44;;;;;;;3.30;1.60;;;;;;;2.61;82.35;97959.03;106167;1277;22730;-76
2022/02/05 06:16:15;;;;;;;2.30;1.40;;;;;;;2.58;82.32;97964.48;105999;1277;137583;-76
2022/02/05 06:18:43;;;;;;;2.10;1.80;;;;;;;2.53;82.33;97967.54;106058;1278;25324;-76
2022/02/05 06:21:10;;;;;;;2.90;1.50;;;;;;;2.49;82.13;97980.11;106165;1277;22584;-76
2022/02/05 06:23:37;;;;;;;3.20;1.70;;;;;;;2.46;82.07;97987.70;105571;1279;137704;-77
2022/02/05 06:26:04;;;;;;;2.30;1.40;;;;;;;2.43;82.13;97994.52;105817;1277;22707;-76
2022/02/05 06:28:31;;;;;;;2.10;1.40;;;;;;;2.41;81.96;97998.38;105879;1277;138038;-76
2022/02/05 06:30:58;;;;;;;1.60;1.50;;;;;;;2.40;81.82;98004.98;106374;1277;24225;-76
2022/02/05 06:33:25;;;;;;;1.70;1.40;;;;;;;2.38;81.85;98014.70;106143;1277;137287;-77
2022/02/05 06:35:52;;;;;;;1.70;1.40;;;;;;;2.36;81.86;98024.15;106084;1277;22547;-77
2022/02/05 06:38:19;;;;;;;3.30;1.50;;;;;;;2.33;81.64;98033.89;106222;1277;22550;-78
2022/02/05 06:40:46;;;;;;;2.00;1.60;;;;;;;2.32;81.48;98038.36;106031;1277;137801;-77
2022/02/05 06:43:13;;;;;;;2.80;1.30;;;;;;;2.31;81.36;98039.10;106090;1277;22569;-77
2022/02/05 06:45:40;;;;;;;3.40;1.60;;;;;;;2.32;81.28;98041.58;106193;1277;137664;-77
2022/02/05 06:48:09;;;;;;;2.60;1.30;;;;;;;2.31;81.07;98044.31;106796;1277;22600;-77
2022/02/05 06:50:37;;;;;;;4.00;1.40;;;;;;;2.29;80.66;98055.64;106260;1277;138813;-76
2022/02/05 06:53:04;;;;;;;1.60;1.10;;;;;;;2.27;80.04;98065.00;106113;1278;22651;-77
2022/02/05 06:55:30;;;;;;;2.40;1.10;;;;;;;2.27;79.98;98070.05;106556;1277;137954;-76
2022/02/05 06:57:58;;;;;;;4.80;1.40;;;;;;;2.26;79.86;98075.88;106792;1277;22562;-76
2022/02/05 07:00:25;;;;;;;2.80;1.20;;;;;;;2.27;79.70;98080.52;106435;1277;22567;-76
2022/02/05 07:02:52;;;;;;;2.00;1.10;;;;;;;2.27;79.74;98084.96;106457;1277;137450;-77
2022/02/05 07:05:19;;;;;;;3.70;1.20;;;;;;;2.25;79.61;98086.05;106799;1277;25376;-77
2022/02/05 07:07:46;;;;;;;3.30;2.30;;;;;;;2.25;79.69;98087.52;106133;1277;137551;-77
2022/02/05 07:10:13;;;;;;;3.50;1.50;;;;;;;2.27;79.78;98094.73;106813;1277;25331;-77
2022/02/05 07:13:00;;;;;;;2.30;1.40;;;;;;;2.32;79.71;98092.42;106808;1277;24037;-77
2022/02/05 07:15:32;;;;;;;2.20;1.30;;;;;;;2.36;79.63;98103.56;106321;1276;137304;-77
2022/02/05 07:20:50;;;;;;;1.20;1.10;;;;;;;2.37;79.18;98104.60;106158;1277;137570;-77
2022/02/05 07:31:23;;;;;;;3.20;1.50;;;;;;;2.41;78.96;98116.07;106050;1277;137950;-78
2022/02/05 07:33:49;;;;;;;1.60;1.40;;;;;;;2.43;78.68;98124.55;105737;1277;25401;-79
2022/02/05 07:36:17;;;;;;;3.60;1.20;;;;;;;2.45;78.59;98126.00;106215;1277;23250;-77
2022/02/05 07:38:46;;;;;;;3.10;1.30;;;;;;;2.45;78.37;98125.42;106382;1277;137365;-77
2022/02/05 07:41:13;;;;;;;2.10;1.10;;;;;;;2.45;78.27;98136.64;106615;1278;24291;-77
2022/02/05 07:43:41;;;;;;;1.80;1.10;;;;;;;2.45;78.03;98134.90;106654;1277;137669;-77
2022/02/05 07:46:10;;;;;;;3.30;1.60;;;;;;;2.44;77.98;98138.91;107573;1277;22557;-77
2022/02/05 07:48:39;;;;;;;2.40;1.30;;;;;;;2.43;77.75;98142.66;106225;1278;24287;-77
2022/02/05 07:51:06;;;;;;;5.00;1.90;;;;;;;2.40;77.71;98152.73;106343;1277;137317;-77
2022/02/05 07:53:34;;;;;;;2.40;1.30;;;;;;;2.37;77.75;98156.20;105953;1277;25241;-77
2022/02/05 07:56:02;;;;;;;4.50;1.40;;;;;;;2.36;77.40;98153.46;106103;1277;138012;-77
2022/02/05 07:58:31;;;;;;;2.60;1.80;;;;;;;2.37;77.45;98159.24;106230;1277;22560;-77
2022/02/05 08:00:58;;;;;;;3.60;1.70;;;;;;;2.41;77.14;98159.31;106338;1277;22602;-77
2022/02/05 08:03:25;;;;;;;2.60;1.30;;;;;;;2.43;77.27;98174.54;106035;1277;137249;-77
2022/02/05 08:06:14;;;;;;;3.70;1.50;;;;;;;2.47;76.92;98179.48;106180;1277;22511;-76
2022/02/05 08:08:43;;;;;;;3.90;1.40;;;;;;;2.50;76.83;98189.66;105979;1277;137133;-77
2022/02/05 08:11:13;;;;;;;4.90;1.70;;;;;;;2.54;76.97;98197.00;105911;1278;22844;-76
2022/02/05 08:13:43;;;;;;;3.30;1.60;;;;;;;2.59;76.67;98193.30;106353;1276;137839;-77
2022/02/05 08:16:45;;;;;;;5.10;1.80;;;;;;;2.68;76.65;98197.84;106149;1276;22704;-77
2022/02/05 08:19:00;;;;;;;4.10;1.60;;;;;;;2.82;75.80;98197.77;105870;1277;22714;-77
2022/02/05 08:21:27;;;;;;;2.80;1.50;;;;;;;2.92;75.52;98202.35;106729;1277;137283;-77
2022/02/05 08:23:54;;;;;;;3.10;1.70;;;;;;;2.99;74.79;98208.90;106315;1277;22565;-78
2022/02/05 08:26:27;;;;;;;2.80;1.80;;;;;;;3.04;74.36;98209.30;106256;1277;137459;-76
2022/02/05 08:28:55;;;;;;;4.10;1.30;;;;;;;3.07;73.90;98215.73;106641;1277;22575;-77
2022/02/05 08:31:23;;;;;;;4.50;2.00;;;;;;;3.11;74.08;98220.08;106530;1277;138329;-77
2022/02/05 08:33:51;;;;;;;4.00;1.60;;;;;;;3.16;73.68;98227.21;106646;1277;23431;-77
2022/02/05 08:36:21;;;;;;;4.60;1.60;;;;;;;3.19;73.19;98226.11;106500;1279;23389;-77
2022/02/05 08:38:50;;;;;;;2.30;1.30;;;;;;;3.22;72.95;98230.00;106291;1277;137391;-77
2022/02/05 08:41:17;;;;;;;3.20;1.50;;;;;;;3.24;73.16;98228.02;106622;1277;22572;-77
2022/02/05 08:43:44;;;;;;;3.20;1.30;;;;;;;3.27;72.81;98235.11;106313;1277;140181;-77
2022/02/05 08:46:11;;;;;;;3.90;1.40;;;;;;;3.31;72.58;98237.02;106186;1277;22582;-77
2022/02/05 08:48:38;;;;;;;3.00;1.30;;;;;;;3.32;72.36;98235.41;106416;1277;22550;-77
2022/02/05 08:51:06;;;;;;;6.30;1.30;;;;;;;3.33;72.16;98238.14;106535;1277;137910;-77
2022/02/05 08:53:33;;;;;;;6.40;2.20;;;;;;;3.35;72.12;98236.65;106048;1277;22569;-76
2022/02/05 08:56:00;;;;;;;3.90;1.50;;;;;;;3.39;72.20;98242.17;106425;1277;137626;-78
2022/02/05 08:58:27;;;;;;;6.60;2.40;;;;;;;3.44;72.07;98237.92;106245;1277;22586;-77
2022/02/05 09:01:08;;;;;;;5.30;1.80;;;;;;;3.50;71.61;98240.21;106973;1277;24285;-77
2022/02/05 09:04:28;;;;;;;6.40;1.80;;;;;;;3.54;71.01;98239.66;106426;1277;137040;-77
2022/02/05 09:06:28;;;;;;;3.90;2.00;;;;;;;3.59;71.23;98243.00;106058;1277;25251;-77
2022/02/05 09:09:07;;;;;;;5.10;2.00;;;;;;;3.66;71.64;98240.27;105740;1277;137634;-77
2022/02/05 09:11:43;;;;;;;5.10;1.50;;;;;;;3.73;70.23;98248.55;105730;1277;30770;-77
2022/02/05 09:14:13;;;;;;;4.10;1.40;;;;;;;3.77;69.55;98253.94;105809;1278;137903;-77
2022/02/05 09:16:42;;;;;;;2.80;1.40;;;;;;;3.79;69.02;98263.93;106109;1278;24940;-77
2022/02/05 09:19:09;;;;;;;3.30;1.50;;;;;;;3.81;68.72;98263.98;105953;1277;23925;-77
2022/02/05 09:21:36;;;;;;;5.40;1.30;;;;;;;3.87;68.76;98269.56;105658;1277;138445;-77
2022/02/05 09:24:06;;;;;;;3.00;1.20;;;;;;;3.91;68.10;98267.97;106029;1277;25261;-77
2022/02/05 09:26:39;;;;;;;5.20;2.30;;;;;;;3.92;68.12;98263.61;105993;1277;137820;-77
2022/02/05 09:29:18;;;;;;;8.30;2.50;;;;;;;3.94;67.77;98265.14;106016;1277;22549;-77
2022/02/05 09:31:49;;;;;;;4.10;1.20;;;;;;;3.96;68.52;98270.57;105709;1278;137699;-77
2022/02/05 09:34:30;;;;;;;4.70;1.80;;;;;;;3.98;67.85;98270.95;105882;1277;24211;-77
2022/02/05 09:36:59;;;;;;;2.90;1.30;;;;;;;3.98;67.21;98272.18;106016;1278;25284;-76
2022/02/05 09:39:26;;;;;;;6.10;1.70;;;;;;;3.95;65.94;98270.20;105787;1278;137615;-76
2022/02/05 09:41:53;;;;;;;3.00;2.00;;;;;;;3.91;65.76;98269.58;106085;1277;25373;-76
2022/02/05 09:44:27;;;;;;;3.90;1.50;;;;;;;3.89;66.26;98267.50;105783;1277;137356;-76
2022/02/05 09:46:54;;;;;;;3.10;1.00;;;;;;;3.86;65.16;98264.39;106022;1277;22554;-76
2022/02/05 09:49:24;;;;;;;9.60;1.80;;;;;;;3.86;65.06;98265.05;105927;1277;137506;-76
2022/02/05 09:52:06;;;;;;;8.50;2.10;;;;;;;3.88;65.85;98265.10;105997;1277;22591;-76
2022/02/05 09:54:38;;;;;;;5.30;1.40;;;;;;;3.90;64.50;98263.61;105822;1278;24264;-77
2022/02/05 09:57:06;;;;;;;4.60;1.10;;;;;;;3.91;64.27;98267.17;105877;1278;137790;-77
2022/02/05 09:59:46;;;;;;;3.70;1.80;;;;;;;3.97;64.63;98261.04;106145;1276;22560;-78
2022/02/05 10:02:37;;;;;;;5.80;1.70;;;;;;;4.02;64.52;98261.58;106718;1277;137857;-77
2022/02/05 10:05:11;;;;;;;4.40;1.80;;;;;;;4.11;64.18;98261.48;106407;1277;23195;-76
2022/02/05 10:07:55;;;;;;;5.10;1.60;;;;;;;4.19;64.37;98263.80;106586;1277;138823;-76
2022/02/05 10:10:24;;;;;;;5.30;1.20;;;;;;;4.24;63.70;98260.39;105884;1277;22595;-76
2022/02/05 10:13:10;;;;;;;5.40;1.70;;;;;;;4.28;63.01;98261.27;106390;1277;24365;-76
2022/02/05 10:15:40;;;;;;;5.10;2.20;;;;;;;4.37;64.22;98271.21;105605;1279;137438;-75
2022/02/05 10:18:21;;;;;;;5.10;2.80;;;;;;;4.40;63.43;98267.01;106086;1278;24192;-77
2022/02/05 10:20:48;;;;;;;3.10;1.30;;;;;;;4.45;64.56;98266.17;105905;1278;137730;-76
2022/02/05 10:23:16;;;;;;;8.00;1.70;;;;;;;4.49;63.95;98265.83;106036;1277;23271;-77
2022/02/05 10:25:49;;;;;;;5.80;1.50;;;;;;;4.50;63.98;98266.17;106017;1278;137323;-76
2022/02/05 10:28:16;;;;;;;6.00;1.60;;;;;;;4.52;62.93;98259.77;106219;1277;24236;-77
2022/02/05 10:30:50;;;;;;;8.60;2.50;;;;;;;4.54;63.21;98260.80;106021;1277;24294;-85
2022/02/05 10:33:29;;;;;;;6.80;2.40;;;;;;;4.59;63.37;98256.89;106597;1277;137149;-84
2022/02/05 10:36:10;;;;;;;5.10;1.70;;;;;;;4.64;61.96;98253.69;106098;1279;22581;-78
2022/02/05 10:44:26;;;;;;;5.40;1.30;;;;;;;4.63;61.54;98250.54;106023;1277;137405;-79
2022/02/05 10:46:56;;;;;;;4.40;1.60;;;;;;;4.65;61.01;98247.66;106360;1277;24227;-78
2022/02/05 10:49:57;;;;;;;;;;;;;;;4.65;61.03;98244.43;106151;1277;137213;-78
2022/02/05 10:52:34;;;;;;;5.80;1.70;;;;;;;4.70;61.06;98240.55;106130;1277;22724;-77
2022/02/05 10:57:55;;;;;;;3.90;1.60;;;;;;;4.80;60.24;98246.63;105751;1276;137654;-78
2022/02/05 11:05:41;;;;;;;4.60;1.70;;;;;;;4.78;58.41;98252.89;106179;1277;22634;-77
2022/02/05 11:08:10;;;;;;;9.10;2.80;;;;;;;4.73;59.23;98250.74;106000;1277;137167;-77
2022/02/05 11:13:54;;;;;;;4.10;1.70;;;;;;;4.66;59.22;98258.95;106262;1277;137254;-76
2022/02/05 11:19:08;;;;;;;5.70;1.20;;;;;;;4.60;58.82;98254.86;106133;1277;22564;-76
2022/02/05 11:21:36;;;;;;;6.30;2.00;;;;;;;4.55;58.52;98265.16;106156;1277;137115;-76
2022/02/05 11:24:06;;;;;;;3.50;1.40;;;;;;;4.53;58.88;98260.77;106109;1277;22574;-76
2022/02/05 11:26:34;;;;;;;4.60;1.60;;;;;;;4.51;58.65;98255.75;106303;1277;137330;-76
2022/02/05 11:29:04;;;;;;;6.40;1.90;;;;;;;4.52;59.19;98258.38;106106;1277;25276;-77
2022/02/05 11:31:39;;;;;;;5.10;1.60;;;;;;;4.56;59.66;98266.08;106881;1277;137620;-77
2022/02/05 11:34:27;;;;;;;7.10;1.80;;;;;;;4.59;59.18;98266.94;107350;1277;22858;-77
2022/02/05 11:37:01;;;;;;;3.50;1.30;;;;;;;4.64;59.49;98257.51;106460;1276;25272;-77
2022/02/05 11:39:28;;;;;;;4.90;1.50;;;;;;;4.70;59.11;98259.11;106985;1276;137208;-77
2022/02/05 11:41:56;;;;;;;5.00;1.70;;;;;;;4.79;58.67;98258.33;106613;1279;22715;-76
2022/02/05 11:44:49;;;;;;;5.10;1.80;;;;;;;4.88;58.83;98264.60;106233;1277;137672;-77
2022/02/05 11:47:19;;;;;;;6.20;1.80;;;;;;;4.97;59.54;98264.29;105922;1277;22661;-76
2022/02/05 11:50:00;;;;;;;2.80;1.30;;;;;;;4.99;58.21;98254.98;105967;1277;137218;-76
2022/02/05 11:52:47;;;;;;;4.90;1.60;;;;;;;4.97;57.84;98252.05;105888;1277;22558;-76
2022/02/05 11:55:35;;;;;;;4.00;1.30;;;;;;;4.93;58.52;98266.55;105826;1279;30425;-77
2022/02/05 11:58:08;;;;;;;4.70;2.00;;;;;;;4.92;58.78;98269.13;105976;1279;23712;-76
2022/02/05 12:00:53;;;;;;;4.00;1.50;;;;;;;4.89;59.40;98270.17;105991;1279;25356;-76
2022/02/05 12:03:31;;;;;;;4.20;1.80;;;;;;;4.86;57.86;98266.85;105756;1279;137110;-76
2022/02/05 12:06:05;;;;;;;5.00;2.20;;;;;;;4.82;57.76;98271.52;106089;1277;25258;-76
2022/02/05 12:08:36;;;;;;;4.80;1.60;;;;;;;4.81;58.21;98277.04;106087;1277;137287;-76
2022/02/05 12:11:25;;;;;;;4.20;1.90;;;;;;;4.80;58.94;98276.47;106046;1277;24345;-76
2022/02/05 12:14:12;;;;;;;13.80;2.70;;;;;;;4.79;59.47;98280.98;106082;1277;231913;-76
2022/02/05 12:17:03;;;;;;;3.40;1.70;;;;;;;4.76;59.18;98280.83;106522;1277;22649;-77
2022/02/05 12:20:10;;;;;;;4.70;2.80;;;;;;;4.72;59.13;98280.31;105800;1277;137492;-76
2022/02/05 12:23:24;;;;;;;7.90;1.50;;;;;;;4.66;59.03;98288.08;106114;1279;22589;-76
2022/02/05 12:26:05;;;;;;;3.90;1.20;;;;;;;4.63;59.86;98281.86;105855;1277;137415;-76
2022/02/05 12:28:33;;;;;;;3.40;1.40;;;;;;;4.68;59.40;98280.15;106029;1277;24282;-77
2022/02/05 12:31:02;;;;;;;6.50;1.70;;;;;;;4.78;59.47;98279.24;105958;1280;22540;-76
2022/02/05 12:33:59;;;;;;;4.70;1.90;;;;;;;4.85;59.33;98275.56;106495;1277;137586;-77
2022/02/05 12:36:30;;;;;;;6.50;1.90;;;;;;;5.01;60.42;98268.34;106384;1278;31055;-76
2022/02/05 12:38:59;;;;;;;5.90;1.90;;;;;;;5.21;60.94;98265.33;106108;1277;137306;-76
2022/02/05 12:41:29;;;;;;;2.90;1.70;;;;;;;5.33;59.45;98267.36;106438;1279;22571;-76
2022/02/05 12:44:05;;;;;;;5.70;2.00;;;;;;;5.44;59.82;98263.02;106062;1279;137291;-76
2022/02/05 12:46:41;;;;;;;4.30;1.90;;;;;;;5.52;57.81;98267.05;106528;1277;22566;-76
2022/02/05 12:49:26;;;;;;;8.60;2.40;;;;;;;5.45;58.04;98264.51;106722;1277;25375;-76
2022/02/05 12:51:58;;;;;;;8.20;2.80;;;;;;;5.37;58.78;98265.50;106059;1277;137456;-76
2022/02/05 12:54:27;;;;;;;7.70;2.90;;;;;;;5.28;58.87;98276.77;106262;1277;25257;-76
2022/02/05 12:56:57;;;;;;;7.20;3.00;;;;;;;5.19;59.30;98280.98;105780;1279;137181;-76
2022/02/05 12:59:35;;;;;;;;;;;;;;;5.08;60.05;98283.96;106379;1278;22542;-76
2022/02/05 13:02:18;;;;;;;10.80;2.70;;;;;;;4.89;61.30;98293.16;105952;1279;123899;-76
2022/02/05 13:04:55;;;;;;;6.00;3.30;;;;;;;4.74;62.24;98299.69;106273;1279;23148;-76
2022/02/05 13:07:24;;;;;;;8.10;2.30;;;;;;;4.59;61.86;98298.21;105848;1277;30612;-76
2022/02/05 13:10:01;;;;;;;4.60;1.80;;;;;;;4.48;62.22;98302.60;106054;1277;137574;-76
2022/02/05 13:12:38;;;;;;;7.10;2.80;;;;;;;4.37;63.00;98307.98;106104;1277;22633;-77
2022/02/05 13:15:21;;;;;;;9.70;3.10;;;;;;;4.31;63.83;98300.79;106358;1277;137798;-76
2022/02/05 13:34:16;;;;;;;11.80;4.20;;;;;;;3.84;66.92;98299.66;106006;1277;138303;-76
2022/02/05 13:37:02;;;;;;;9.20;4.10;;;;;;;3.83;67.23;98298.13;106093;1277;25272;-76
2022/02/05 13:42:37;;;;;;;10.50;4.70;;;;;;;3.77;67.65;98298.25;105825;1278;22576;-77
2022/02/05 13:45:24;;;;;;;9.90;3.80;;;;;;;3.75;68.33;98292.27;106105;1278;138398;-77
2022/02/05 13:47:53;;;;;;;8.80;3.90;;;;;;;3.74;68.89;98283.90;106907;1277;25260;-77
2022/02/05 13:50:27;;;;;;;10.50;4.00;;;;;;;3.73;69.31;98295.26;106420;1278;137975;-77
2022/02/05 13:53:03;;;;;;;10.30;4.80;;;;;;;3.70;69.64;98289.70;106279;1277;22574;-77
2022/02/05 13:55:35;;;;;;;9.30;4.30;;;;;;;3.72;70.06;98296.65;106410;1277;24287;-77
2022/02/05 13:58:12;;;;;;;13.20;5.50;;;;;;;3.82;70.25;98303.30;106125;1277;137665;-77
2022/02/05 14:00:51;;;;;;;14.70;6.30;;;;;;;3.85;70.13;98299.48;106083;1277;24306;-76
2022/02/05 14:03:28;;;;;;;;;;;;;;;3.85;70.35;98302.64;106200;1279;137404;-76
2022/02/05 14:06:01;;;;;;;12.20;5.30;;;;;;;3.81;70.30;98302.30;106162;1277;23983;-76
2022/02/05 14:08:34;;;;;;;11.80;5.50;;;;;;;3.76;70.00;98307.44;106316;1277;141120;-76
2022/02/05 14:11:04;;;;;;;13.70;5.10;;;;;;;3.69;69.99;98307.30;106324;1277;24288;-77
2022/02/05 14:13:31;;;;;;;13.20;5.30;;;;;;;3.62;69.88;98305.84;106379;1277;22609;-76
2022/02/05 14:16:01;;;;;;;8.70;4.00;;;;;;;3.56;69.76;98301.72;106126;1277;137589;-76
2022/02/05 14:18:34;;;;;;;;;;;;;;;3.49;69.46;98301.87;106108;1277;25232;-77
2022/02/05 14:21:03;;;;;;;10.90;4.20;;;;;;;3.43;69.62;98312.50;105910;1278;124293;-76
2022/02/05 14:23:33;;;;;;;8.10;3.20;;;;;;;3.38;69.68;98333.23;106277;1279;23341;-77
2022/02/05 14:26:11;;;;;;;9.50;3.90;;;;;;;3.33;69.68;98340.95;106125;1277;137247;-76
2022/02/05 14:28:54;;;;;;;14.70;5.70;;;;;;;3.28;69.87;98353.31;106170;1277;24211;-76
2022/02/05 14:31:31;;;;;;;8.90;3.70;;;;;;;3.22;70.21;98376.80;106552;1277;22709;-76